Time;durP1;ratioP1;P1;durP2;ratioP2;P2;SDS_P1;SDS_P2;PMS_P1;PMS_P2;Temp;Humidity;BMP_temperature;BMP_pressure;BME280_temperature;BME280_humidity;BME280_pressure;Samples;Min_cycle;Max_cycle;Signal;HPM_P1;HPM_P2
2021/09/17 00:01:13;;;;;;;7.40;5.22;;;12.40;99.90;;;;;;4919520;29;20199;-88
2021/09/17 00:03:38;;;;;;;6.60;4.88;;;12.40;99.90;;;;;;4919950;29;20031;-89
2021/09/17 00:06:04;;;;;;;10.82;4.70;;;12.30;99.90;;;;;;4919650;29;20396;-89
2021/09/17 00:08:30;;;;;;;7.45;4.68;;;12.30;99.90;;;;;;4919804;29;20031;-89
2021/09/17 00:10:55;;;;;;;6.90;4.45;;;12.40;99.90;;;;;;4919302;29;20036;-89
2021/09/17 00:13:21;;;;;;;5.93;4.60;;;12.40;99.90;;;;;;4919741;29;20056;-88
2021/09/17 00:15:47;;;;;;;6.18;4.38;;;12.40;99.90;;;;;;4936933;29;20027;-89
2021/09/17 00:18:13;;;;;;;9.88;5.55;;;12.30;99.90;;;;;;4919953;29;20095;-90
2021/09/17 00:20:39;;;;;;;6.13;4.32;;;12.30;99.90;;;;;;4919818;29;20023;-90
2021/09/17 00:23:04;;;;;;;7.30;5.07;;;12.30;99.90;;;;;;4920951;29;20032;-89
2021/09/17 00:25:30;;;;;;;6.47;4.55;;;12.20;99.90;;;;;;4920732;29;20039;-89
2021/09/17 00:27:55;;;;;;;5.30;4.28;;;12.20;99.90;;;;;;4919924;29;20032;-89
2021/09/17 00:30:23;;;;;;;11.57;4.85;;;12.20;99.90;;;;;;4919598;29;20026;-88
2021/09/17 00:32:49;;;;;;;6.82;4.85;;;12.20;99.90;;;;;;4919563;29;20040;-89
2021/09/17 00:35:14;;;;;;;7.28;5.03;;;12.10;99.90;;;;;;4919599;29;20031;-89
2021/09/17 00:37:40;;;;;;;10.10;4.90;;;12.20;99.90;;;;;;4919749;29;20046;-89
2021/09/17 00:40:07;;;;;;;9.30;4.30;;;12.10;99.90;;;;;;4919365;29;20031;-90
2021/09/17 00:42:35;;;;;;;10.35;5.32;;;12.10;99.90;;;;;;4919377;29;20110;-88
2021/09/17 00:45:02;;;;;;;8.40;5.53;;;12.10;99.90;;;;;;4919847;29;20549;-89
2021/09/17 00:47:28;;;;;;;9.57;5.70;;;12.10;99.90;;;;;;4919363;29;20043;-90
2021/09/17 00:49:54;;;;;;;9.23;5.40;;;12.10;99.90;;;;;;4952961;29;20082;-89
2021/09/17 00:52:19;;;;;;;10.23;6.00;;;12.00;99.90;;;;;;4938236;28;20125;-89
2021/09/17 00:54:45;;;;;;;11.10;6.35;;;12.00;99.90;;;;;;4938675;29;20035;-89
2021/09/17 00:57:12;;;;;;;8.73;5.40;;;12.00;99.90;;;;;;4938455;29;20058;-89
2021/09/17 00:59:38;;;;;;;8.63;5.45;;;11.90;99.90;;;;;;4938289;29;20056;-89
2021/09/17 01:02:04;;;;;;;8.95;5.57;;;11.90;99.90;;;;;;4938409;29;20023;-88
2021/09/17 01:04:30;;;;;;;10.40;5.30;;;11.90;99.90;;;;;;4938018;28;20378;-89
2021/09/17 01:06:56;;;;;;;8.35;5.03;;;11.90;99.90;;;;;;4938467;29;20562;-89
2021/09/17 01:09:22;;;;;;;10.35;5.40;;;11.80;99.90;;;;;;4938281;29;20066;-89
2021/09/17 01:11:47;;;;;;;7.95;4.70;;;11.80;99.90;;;;;;4938268;29;20027;-88
2021/09/17 01:14:13;;;;;;;8.93;5.65;;;11.80;99.90;;;;;;4938161;29;20498;-88
2021/09/17 01:16:39;;;;;;;8.55;5.78;;;11.70;99.90;;;;;;4938307;29;20110;-88
2021/09/17 01:19:05;;;;;;;10.48;5.50;;;11.70;99.90;;;;;;4938255;29;20035;-89
2021/09/17 01:21:30;;;;;;;8.88;5.35;;;11.60;99.90;;;;;;4938527;28;20088;-91
2021/09/17 01:23:56;;;;;;;9.77;5.25;;;11.50;99.90;;;;;;4937939;29;20091;-90
2021/09/17 01:26:22;;;;;;;9.63;5.90;;;11.50;99.90;;;;;;4955357;28;20027;-89
2021/09/17 01:28:48;;;;;;;7.15;5.32;;;11.50;99.90;;;;;;4938304;29;20031;-89
2021/09/17 01:31:13;;;;;;;9.98;6.00;;;11.40;99.90;;;;;;4937996;29;20023;-91
2021/09/17 01:33:39;;;;;;;11.82;6.70;;;11.50;99.90;;;;;;4942038;28;20453;-89
2021/09/17 01:36:08;;;;;;;12.20;6.78;;;11.50;99.90;;;;;;4942382;29;20031;-89
2021/09/17 01:38:36;;;;;;;13.13;7.25;;;11.40;99.90;;;;;;4942216;29;20068;-88
2021/09/17 01:41:03;;;;;;;37.15;7.45;;;11.50;99.90;;;;;;4942101;29;20034;-89
2021/09/17 01:43:29;;;;;;;23.38;7.93;;;11.40;99.90;;;;;;4942747;29;20038;-89
2021/09/17 01:45:56;;;;;;;27.00;5.88;;;11.40;99.90;;;;;;4959454;28;20035;-89
2021/09/17 01:48:26;;;;;;;21.55;7.53;;;11.30;99.90;;;;;;4958692;28;20114;-88
2021/09/17 01:50:51;;;;;;;61.35;6.07;;;11.30;99.90;;;;;;4941735;29;20033;-89
2021/09/17 01:53:17;;;;;;;45.47;6.93;;;11.30;99.90;;;;;;4958593;28;20392;-88
2021/09/17 01:55:43;;;;;;;12.00;6.18;;;11.20;99.90;;;;;;4958795;28;20520;-89
2021/09/17 01:58:08;;;;;;;15.75;6.13;;;11.10;99.90;;;;;;4941212;29;20051;-90
2021/09/17 02:00:34;;;;;;;10.43;6.00;;;11.10;99.90;;;;;;4941530;29;20083;-88
2021/09/17 02:03:01;;;;;;;8.25;5.80;;;11.10;99.90;;;;;;4941357;29;20058;-87
2021/09/17 02:05:28;;;;;;;19.67;5.47;;;11.20;99.90;;;;;;4941817;29;20024;-89
2021/09/17 02:07:53;;;;;;;16.92;4.25;;;11.10;99.90;;;;;;4941725;29;20031;-89
2021/09/17 02:10:19;;;;;;;17.73;6.65;;;11.20;99.90;;;;;;4941715;29;20580;-90
2021/09/17 02:12:45;;;;;;;15.93;6.35;;;11.10;99.90;;;;;;4941747;29;20366;-90
2021/09/17 02:15:12;;;;;;;12.45;6.55;;;11.10;99.90;;;;;;4941590;29;20035;-89
2021/09/17 02:17:38;;;;;;;10.75;6.72;;;11.10;99.90;;;;;;4941551;29;20039;-90
2021/09/17 02:20:05;;;;;;;14.45;6.90;;;11.10;99.90;;;;;;4941188;29;20046;-90
2021/09/17 02:22:31;;;;;;;26.83;7.18;;;11.10;99.90;;;;;;4940899;29;20049;-87
2021/09/17 02:24:58;;;;;;;14.73;6.30;;;11.10;99.90;;;;;;4941162;29;20046;-87
2021/09/17 02:27:24;;;;;;;12.13;6.40;;;11.00;99.90;;;;;;4940952;29;20027;-89
2021/09/17 02:29:50;;;;;;;22.95;6.15;;;11.00;99.90;;;;;;4940541;29;20043;-90
2021/09/17 02:32:15;;;;;;;18.05;6.68;;;11.00;99.90;;;;;;4940967;28;20028;-89
2021/09/17 02:34:41;;;;;;;18.10;5.85;;;10.90;99.90;;;;;;4958469;29;20031;-89
2021/09/17 02:37:07;;;;;;;19.58;6.55;;;10.90;99.90;;;;;;4958020;29;20023;-90
2021/09/17 02:39:33;;;;;;;17.33;6.20;;;10.90;99.90;;;;;;4941241;29;20400;-90
2021/09/17 02:41:58;;;;;;;17.38;6.63;;;10.90;99.90;;;;;;4941330;29;20032;-90
2021/09/17 02:44:24;;;;;;;10.38;6.00;;;10.80;99.90;;;;;;4940680;29;20031;-89
2021/09/17 02:46:50;;;;;;;9.35;5.82;;;10.80;99.90;;;;;;4941526;29;20031;-90
2021/09/17 02:49:15;;;;;;;32.25;7.13;;;10.80;99.90;;;;;;4941690;29;20023;-87
2021/09/17 02:51:41;;;;;;;14.77;6.78;;;10.70;99.90;;;;;;4942215;29;20027;-90
2021/09/17 02:54:06;;;;;;;17.20;6.47;;;10.70;99.90;;;;;;4955473;29;20019;-90
2021/09/17 02:56:32;;;;;;;14.20;6.68;;;10.60;99.90;;;;;;4964382;29;20012;-89
2021/09/17 02:58:58;;;;;;;12.65;5.40;;;10.70;99.90;;;;;;4965021;29;20023;-89
2021/09/17 03:01:23;;;;;;;11.95;6.40;;;10.70;99.90;;;;;;4964754;29;20042;-90
2021/09/17 03:03:49;;;;;;;36.35;6.82;;;10.70;99.90;;;;;;4963924;28;20043;-90
2021/09/17 03:06:15;;;;;;;110.63;6.88;;;10.70;99.90;;;;;;4960346;29;20031;-90
2021/09/17 03:08:40;;;;;;;26.35;6.63;;;10.70;99.90;;;;;;4953778;29;20027;-90
2021/09/17 03:11:06;;;;;;;25.75;7.30;;;10.70;99.90;;;;;;4953136;29;20023;-90
2021/09/17 03:13:32;;;;;;;15.93;7.93;;;10.70;99.90;;;;;;4948863;29;20067;-89
2021/09/17 03:15:57;;;;;;;19.17;7.45;;;10.70;99.90;;;;;;4948945;29;20027;-91
2021/09/17 03:18:23;;;;;;;20.48;6.07;;;10.70;99.90;;;;;;4948149;29;20051;-89
2021/09/17 03:20:50;;;;;;;21.33;7.72;;;10.70;99.90;;;;;;4944239;29;20054;-89
2021/09/17 03:23:17;;;;;;;17.42;7.78;;;10.70;99.90;;;;;;4943704;29;20023;-91
2021/09/17 03:25:42;;;;;;;16.52;7.85;;;10.70;99.90;;;;;;4941692;29;20027;-91
2021/09/17 03:28:08;;;;;;;14.82;8.10;;;10.70;99.90;;;;;;4958069;28;20038;-89
2021/09/17 03:30:34;;;;;;;32.80;7.20;;;10.70;99.90;;;;;;4958569;28;20023;-90
2021/09/17 03:33:00;;;;;;;31.98;7.22;;;10.70;99.90;;;;;;4941641;29;20027;-90
2021/09/17 03:35:25;;;;;;;22.30;8.82;;;10.70;99.90;;;;;;4941109;29;20049;-90
2021/09/17 03:37:51;;;;;;;24.40;7.90;;;10.70;99.90;;;;;;4941418;29;20035;-88
2021/09/17 03:40:18;;;;;;;19.67;8.65;;;10.70;99.90;;;;;;4941492;29;20062;-89
2021/09/17 03:42:43;;;;;;;31.17;9.32;;;10.70;99.90;;;;;;4941185;29;20031;-89
2021/09/17 03:45:10;;;;;;;27.38;9.10;;;10.80;99.90;;;;;;4940874;29;20111;-90
2021/09/17 03:47:36;;;;;;;18.25;9.05;;;10.80;99.90;;;;;;4940726;29;20023;-89
2021/09/17 03:50:02;;;;;;;52.08;9.15;;;10.80;99.90;;;;;;4940927;29;20035;-89
2021/09/17 03:52:27;;;;;;;42.90;9.35;;;10.80;99.90;;;;;;4940651;29;20027;-89
2021/09/17 03:54:53;;;;;;;48.28;8.95;;;10.70;99.90;;;;;;4940682;29;20034;-89
2021/09/17 03:57:19;;;;;;;37.00;8.45;;;10.60;99.90;;;;;;4939748;29;20059;-90
2021/09/17 03:59:45;;;;;;;42.75;9.73;;;10.60;99.90;;;;;;4957038;28;20500;-89
2021/09/17 04:02:11;;;;;;;45.05;8.20;;;10.60;99.90;;;;;;4939608;29;20031;-89
2021/09/17 04:04:39;;;;;;;31.67;8.77;;;10.60;99.90;;;;;;4939453;28;20029;-89
2021/09/17 04:07:05;;;;;;;30.38;7.78;;;10.60;99.90;;;;;;4939462;29;20027;-89
2021/09/17 04:09:31;;;;;;;35.33;8.18;;;10.60;99.90;;;;;;4939704;29;20094;-90
2021/09/17 04:11:57;;;;;;;21.05;7.35;;;10.60;99.90;;;;;;4939402;29;20029;-90
2021/09/17 04:14:22;;;;;;;31.05;8.07;;;10.60;99.90;;;;;;4956821;28;20019;-89
2021/09/17 04:16:48;;;;;;;40.65;9.25;;;10.60;99.90;;;;;;4939876;29;20584;-89
2021/09/17 04:19:14;;;;;;;27.45;7.13;;;10.60;99.90;;;;;;4939654;29;20031;-89
2021/09/17 04:21:39;;;;;;;33.72;8.25;;;10.60;99.90;;;;;;4939578;29;20563;-90
2021/09/17 04:24:06;;;;;;;28.35;9.73;;;10.60;99.90;;;;;;4939825;29;20433;-90
2021/09/17 04:26:32;;;;;;;20.67;8.13;;;10.60;99.90;;;;;;4939385;29;20122;-89
2021/09/17 04:28:58;;;;;;;17.58;8.60;;;10.60;99.90;;;;;;4939301;28;20055;-89
2021/09/17 04:31:23;;;;;;;22.88;8.15;;;10.60;99.90;;;;;;4939244;29;20039;-89
2021/09/17 04:33:49;;;;;;;25.08;8.25;;;10.60;99.90;;;;;;4939117;29;20035;-90
2021/09/17 04:36:14;;;;;;;25.70;6.72;;;10.60;99.90;;;;;;4956311;29;20057;-90
2021/09/17 04:38:40;;;;;;;26.50;7.22;;;10.60;99.90;;;;;;4938977;29;20377;-89
2021/09/17 04:41:06;;;;;;;49.08;7.53;;;10.60;99.90;;;;;;4939135;28;20030;-90
2021/09/17 04:43:31;;;;;;;24.67;7.20;;;10.60;99.90;;;;;;4938982;28;20523;-89
2021/09/17 04:45:57;;;;;;;31.08;7.03;;;10.60;99.90;;;;;;4938746;29;20554;-89
2021/09/17 04:48:23;;;;;;;25.95;6.43;;;10.50;99.90;;;;;;4955820;28;20113;-90
2021/09/17 04:50:49;;;;;;;14.05;7.03;;;10.50;99.90;;;;;;4938692;29;20038;-90
2021/09/17 04:53:14;;;;;;;25.92;6.53;;;10.50;99.90;;;;;;4938816;29;20110;-89
2021/09/17 04:55:40;;;;;;;23.00;6.90;;;10.50;99.90;;;;;;4938981;29;20090;-89
2021/09/17 04:58:07;;;;;;;23.05;6.70;;;10.50;99.90;;;;;;4955180;28;20062;-89
2021/09/17 05:00:34;;;;;;;17.83;6.50;;;10.50;99.90;;;;;;4938539;29;20031;-89
2021/09/17 05:02:59;;;;;;;25.35;7.03;;;10.50;99.90;;;;;;4938142;29;20082;-90
2021/09/17 05:05:26;;;;;;;25.48;7.47;;;10.40;99.90;;;;;;4955690;28;20027;-89
2021/09/17 05:07:52;;;;;;;15.88;7.47;;;10.40;99.90;;;;;;4938082;29;20499;-89
2021/09/17 05:10:18;;;;;;;24.77;6.43;;;10.40;99.90;;;;;;4938414;29;20023;-91
2021/09/17 05:12:44;;;;;;;19.88;6.90;;;10.50;99.90;;;;;;4955559;29;20508;-90
2021/09/17 05:15:10;;;;;;;18.85;6.53;;;10.50;99.90;;;;;;4938301;29;20112;-89
2021/09/17 05:17:36;;;;;;;27.65;7.00;;;10.40;99.90;;;;;;4938313;29;20039;-89
2021/09/17 05:20:04;;;;;;;21.17;7.78;;;10.40;99.90;;;;;;4938339;29;20096;-89
2021/09/17 05:22:29;;;;;;;15.02;6.68;;;10.40;99.90;;;;;;4938486;29;20027;-89
2021/09/17 05:24:56;;;;;;;13.25;7.10;;;10.40;99.90;;;;;;4938313;29;20512;-89
2021/09/17 05:27:22;;;;;;;18.48;7.28;;;10.30;99.90;;;;;;4938161;29;20125;-90
2021/09/17 05:29:48;;;;;;;17.42;7.10;;;10.30;99.90;;;;;;4938226;29;20477;-89
2021/09/17 05:32:14;;;;;;;13.57;7.10;;;10.40;99.90;;;;;;4955295;29;20032;-89
2021/09/17 05:34:39;;;;;;;14.88;7.60;;;10.40;99.90;;;;;;4938386;29;20023;-89
2021/09/17 05:37:05;;;;;;;21.58;6.93;;;10.40;99.90;;;;;;4938099;29;20050;-89
2021/09/17 05:39:31;;;;;;;28.67;7.05;;;10.40;99.90;;;;;;4938170;28;20032;-90
2021/09/17 05:41:57;;;;;;;17.08;7.50;;;10.40;99.90;;;;;;4938391;29;20035;-88
2021/09/17 05:44:23;;;;;;;37.70;7.32;;;10.40;99.90;;;;;;4955208;29;20517;-89
2021/09/17 05:46:49;;;;;;;34.65;7.72;;;10.40;99.90;;;;;;4938100;29;20533;-90
2021/09/17 05:49:14;;;;;;;58.83;8.93;;;10.40;99.90;;;;;;4938274;29;20398;-89
2021/09/17 05:51:40;;;;;;;54.65;7.60;;;10.30;99.90;;;;;;4937957;29;20078;-89
2021/09/17 05:54:06;;;;;;;30.73;7.07;;;10.30;99.90;;;;;;4954815;29;20028;-90
2021/09/17 05:56:32;;;;;;;58.22;7.57;;;10.30;99.90;;;;;;4937654;28;20055;-90
2021/09/17 05:58:57;;;;;;;21.23;8.05;;;10.20;99.90;;;;;;4938267;29;20039;-90
2021/09/17 06:01:23;;;;;;;24.27;8.13;;;10.20;99.90;;;;;;4937944;29;20114;-90
2021/09/17 06:03:49;;;;;;;41.13;8.23;;;10.20;99.90;;;;;;4937871;29;20035;-90
2021/09/17 06:06:17;;;;;;;26.52;7.88;;;10.30;99.90;;;;;;4938518;29;20448;-90
2021/09/17 06:08:42;;;;;;;30.05;7.57;;;10.30;99.90;;;;;;4933598;29;21040;-90
2021/09/17 06:11:08;;;;;;;30.15;8.10;;;10.30;99.90;;;;;;4935265;29;20070;-90
2021/09/17 06:13:34;;;;;;;30.90;8.75;;;10.30;99.90;;;;;;4918425;29;20108;-90
2021/09/17 06:15:59;;;;;;;25.05;7.57;;;10.30;99.90;;;;;;4918734;29;20051;-90
2021/09/17 06:18:25;;;;;;;42.38;8.50;;;10.30;99.90;;;;;;4918187;29;20067;-89
2021/09/17 06:20:51;;;;;;;46.17;8.20;;;10.30;99.90;;;;;;4921567;29;20052;-89
2021/09/17 06:23:16;;;;;;;26.35;7.47;;;10.30;99.90;;;;;;4921569;29;20504;-89
2021/09/17 06:25:42;;;;;;;38.78;9.50;;;10.20;99.90;;;;;;4938243;29;20481;-89
2021/09/17 06:28:09;;;;;;;48.65;8.38;;;10.20;99.90;;;;;;4922118;29;20059;-90
2021/09/17 06:30:34;;;;;;;21.55;7.72;;;10.30;99.90;;;;;;4922213;29;20028;-88
2021/09/17 06:33:00;;;;;;;34.42;7.72;;;10.30;99.90;;;;;;4921748;29;20083;-90
2021/09/17 06:35:26;;;;;;;40.92;7.75;;;10.30;99.90;;;;;;4921766;29;20038;-88
2021/09/17 06:37:53;;;;;;;24.15;7.72;;;10.30;99.90;;;;;;4937872;29;20032;-88
2021/09/17 06:40:22;;;;;;;29.23;8.02;;;10.20;99.90;;;;;;4921647;29;20039;-88
2021/09/17 06:42:48;;;;;;;21.10;8.40;;;10.20;99.90;;;;;;4921284;29;20059;-88
2021/09/17 06:45:13;;;;;;;15.25;9.13;;;10.20;99.90;;;;;;4938375;29;20490;-87
2021/09/17 06:47:44;;;;;;;51.20;8.85;;;10.20;99.90;;;;;;4921435;29;20043;-87
2021/09/17 06:50:10;;;;;;;38.90;9.18;;;10.20;99.90;;;;;;4921625;29;20039;-88
2021/09/17 06:52:35;;;;;;;51.55;9.18;;;10.20;99.90;;;;;;4919544;29;20035;-88
2021/09/17 06:55:01;;;;;;;49.97;9.60;;;10.20;99.90;;;;;;4902968;29;20066;-89
2021/09/17 06:57:27;;;;;;;41.45;9.82;;;10.20;99.90;;;;;;4902470;29;20055;-89
2021/09/17 06:59:53;;;;;;;49.70;9.02;;;10.20;99.90;;;;;;4903161;29;20105;-87
2021/09/17 07:02:19;;;;;;;35.17;8.93;;;10.20;99.90;;;;;;4923311;29;20036;-88
2021/09/17 07:04:45;;;;;;;14.80;8.63;;;10.20;99.90;;;;;;4906948;29;20494;-90
2021/09/17 07:07:11;;;;;;;25.33;8.43;;;10.30;99.90;;;;;;4906449;29;20024;-90
2021/09/17 07:09:36;;;;;;;28.85;8.02;;;10.30;99.90;;;;;;4905473;29;20031;-89
2021/09/17 07:12:02;;;;;;;33.13;8.43;;;10.40;99.90;;;;;;4904377;29;20135;-90
2021/09/17 07:14:28;;;;;;;19.77;9.65;;;10.40;99.90;;;;;;4903045;29;20118;-88
2021/09/17 07:16:54;;;;;;;22.55;9.38;;;10.50;99.90;;;;;;4902735;29;20153;-88
2021/09/17 07:19:20;;;;;;;25.58;9.48;;;10.50;99.90;;;;;;4920900;29;20043;-89
2021/09/17 07:21:45;;;;;;;15.02;10.10;;;10.60;99.90;;;;;;4921609;29;20028;-88
2021/09/17 07:24:11;;;;;;;25.58;10.48;;;10.60;99.90;;;;;;4921060;29;20038;-88
2021/09/17 07:26:37;;;;;;;16.73;10.63;;;10.70;99.90;;;;;;4925588;29;20023;-90
2021/09/17 07:29:02;;;;;;;19.08;10.15;;;10.70;99.90;;;;;;4941441;29;20074;-89
2021/09/17 07:31:28;;;;;;;10.75;7.78;;;10.80;99.90;;;;;;4949543;29;20075;-88
2021/09/17 07:33:54;;;;;;;10.40;7.25;;;10.90;99.90;;;;;;4933544;28;20032;-88
2021/09/17 07:36:19;;;;;;;33.35;9.45;;;11.00;99.90;;;;;;4946744;29;20020;-89
2021/09/17 07:38:45;;;;;;;47.72;11.73;;;11.10;99.90;;;;;;4942798;29;20043;-90
2021/09/17 07:41:10;;;;;;;19.45;8.38;;;11.20;99.90;;;;;;4931816;29;20089;-89
2021/09/17 07:43:36;;;;;;;9.63;7.10;;;11.20;99.90;;;;;;4924686;29;20062;-89
2021/09/17 07:46:02;;;;;;;9.95;6.82;;;11.30;99.90;;;;;;4922713;29;20098;-90
2021/09/17 07:48:29;;;;;;;13.38;7.03;;;11.40;99.90;;;;;;4921295;29;20024;-90
2021/09/17 07:50:55;;;;;;;9.55;7.05;;;11.50;99.90;;;;;;4921746;29;20031;-90
2021/09/17 07:53:20;;;;;;;24.58;8.32;;;11.60;99.90;;;;;;4912238;29;20024;-90
2021/09/17 07:55:46;;;;;;;75.32;9.93;;;11.70;99.90;;;;;;4921325;29;20390;-89
2021/09/17 07:58:13;;;;;;;17.55;8.15;;;11.80;99.90;;;;;;4919883;29;20052;-90
2021/09/17 08:00:39;;;;;;;13.52;7.70;;;11.80;99.90;;;;;;4918064;29;20074;-90
2021/09/17 08:03:05;;;;;;;66.22;9.93;;;11.80;99.90;;;;;;4919226;29;20055;-90
2021/09/17 08:05:30;;;;;;;39.55;8.38;;;11.80;99.90;;;;;;4936451;29;20027;-90
2021/09/17 08:07:56;;;;;;;13.07;7.85;;;11.90;99.90;;;;;;4919619;29;20572;-90
2021/09/17 08:10:21;;;;;;;15.40;7.57;;;11.90;99.90;;;;;;4918887;29;20438;-89
2021/09/17 08:12:47;;;;;;;12.18;8.60;;;12.00;99.90;;;;;;4918989;29;20055;-90
2021/09/17 08:15:13;;;;;;;59.97;9.00;;;12.10;99.90;;;;;;4918992;29;20470;-90
2021/09/17 08:17:39;;;;;;;8.68;6.50;;;12.20;99.90;;;;;;4918954;29;20142;-91
2021/09/17 08:20:06;;;;;;;17.25;7.22;;;12.30;99.90;;;;;;4919492;29;20063;-89
2021/09/17 08:22:32;;;;;;;56.10;9.02;;;12.40;99.90;;;;;;4936385;29;20031;-90
2021/09/17 08:24:58;;;;;;;8.70;6.63;;;12.50;99.90;;;;;;4919454;29;20083;-90
2021/09/17 08:27:24;;;;;;;14.13;7.95;;;12.50;99.90;;;;;;4919535;29;20023;-88
2021/09/17 08:29:49;;;;;;;16.95;8.70;;;12.60;99.90;;;;;;4919674;29;20039;-88
2021/09/17 08:32:15;;;;;;;12.55;8.38;;;12.70;99.90;;;;;;4917589;29;20035;-88
2021/09/17 08:34:41;;;;;;;12.13;8.50;;;12.80;99.90;;;;;;4917157;29;20485;-89
2021/09/17 08:37:09;;;;;;;9.85;7.28;;;12.80;99.90;;;;;;4919977;29;20046;-90
2021/09/17 08:39:38;;;;;;;11.57;8.13;;;13.00;99.90;;;;;;4933637;29;20498;-89
2021/09/17 08:42:07;;;;;;;12.95;8.13;;;13.10;99.90;;;;;;4916573;29;20031;-90
2021/09/17 08:44:33;;;;;;;12.50;8.05;;;13.20;99.90;;;;;;4935848;29;20073;-88
2021/09/17 08:46:58;;;;;;;10.80;7.70;;;13.20;99.90;;;;;;4919881;29;20134;-90
2021/09/17 08:49:24;;;;;;;11.88;7.90;;;13.30;99.90;;;;;;4929478;29;20030;-89
2021/09/17 08:51:52;;;;;;;11.43;8.50;;;13.40;99.90;;;;;;4920247;29;20028;-90
2021/09/17 08:54:17;;;;;;;12.23;8.57;;;13.40;99.90;;;;;;4920654;29;20028;-91
2021/09/17 08:56:43;;;;;;;9.75;7.57;;;13.50;99.90;;;;;;4937837;29;20046;-91
2021/09/17 08:59:09;;;;;;;10.95;8.00;;;13.50;99.90;;;;;;4939433;29;20043;-90
2021/09/17 09:01:36;;;;;;;15.10;7.93;;;13.60;99.90;;;;;;4939509;28;20019;-89
2021/09/17 09:04:04;;;;;;;10.80;7.32;;;13.60;99.90;;;;;;4947833;29;20036;-91
2021/09/17 09:06:42;;;;;;;11.73;7.25;;;13.70;99.90;;;;;;4919863;29;20516;-89
2021/09/17 09:09:20;;;;;;;11.30;6.85;;;13.80;99.90;;;;;;4920060;29;20040;-91
2021/09/17 09:11:52;;;;;;;16.45;7.72;;;13.90;99.90;;;;;;4919876;29;20039;-92
2021/09/17 09:14:19;;;;;;;9.90;7.15;;;13.90;99.90;;;;;;4919127;29;20032;-91
2021/09/17 09:16:50;;;;;;;13.95;7.97;;;14.00;99.90;;;;;;4918412;29;20098;-92
2021/09/17 09:19:29;;;;;;;13.05;7.35;;;14.00;99.90;;;;;;4920135;29;20024;-91
2021/09/17 09:22:15;;;;;;;11.00;7.85;;;14.00;99.90;;;;;;4919271;29;20035;-91
2021/09/17 09:24:44;;;;;;;10.43;7.43;;;14.10;99.90;;;;;;4919185;29;20115;-92
2021/09/17 09:27:14;;;;;;;12.60;7.72;;;14.10;99.90;;;;;;4920113;29;20078;-92
2021/09/17 09:29:42;;;;;;;12.95;7.40;;;14.20;99.90;;;;;;4936761;29;20068;-92
2021/09/17 09:32:23;;;;;;;13.27;5.80;;;14.20;99.90;;;;;;4919983;29;20090;-91
2021/09/17 09:34:49;;;;;;;7.70;6.00;;;14.30;99.90;;;;;;4920699;29;20042;-91
2021/09/17 09:37:18;;;;;;;12.68;6.30;;;14.50;99.90;;;;;;4920364;29;20043;-91
2021/09/17 09:39:59;;;;;;;10.45;5.60;;;14.50;99.90;;;;;;4919985;29;20043;-92
2021/09/17 09:42:29;;;;;;;;;;;14.60;99.90;;;;;;4920366;29;20031;-91
2021/09/17 09:45:18;;;;;;;6.20;4.05;;;14.70;99.90;;;;;;4920331;29;19994;-91
2021/09/17 09:47:50;;;;;;;9.18;4.40;;;14.80;99.90;;;;;;4919981;29;20032;-92
2021/09/17 09:50:28;;;;;;;8.38;4.03;;;14.90;99.90;;;;;;4920582;29;20079;-91
2021/09/17 09:53:02;;;;;;;8.20;4.50;;;15.00;99.90;;;;;;4920763;29;20095;-92
2021/09/17 09:55:29;;;;;;;5.78;3.72;;;15.00;99.90;;;;;;4923220;29;20020;-91
2021/09/17 09:57:56;;;;;;;6.93;4.22;;;15.10;99.90;;;;;;4940433;29;20493;-91
2021/09/17 10:00:27;;;;;;;8.52;4.53;;;15.10;99.90;;;;;;4924513;29;20024;-92
2021/09/17 10:02:54;;;;;;;9.70;4.55;;;15.10;99.90;;;;;;4923565;29;20032;-91
2021/09/17 10:05:25;;;;;;;7.03;4.65;;;15.10;99.90;;;;;;4923439;29;20031;-91
2021/09/17 10:07:51;;;;;;;8.77;4.43;;;15.20;99.90;;;;;;4923013;29;20031;-91
2021/09/17 10:10:17;;;;;;;10.43;4.75;;;15.30;99.90;;;;;;4922957;29;20075;-92
2021/09/17 10:12:46;;;;;;;9.15;4.60;;;15.30;99.90;;;;;;4923263;29;20042;-93
2021/09/17 10:15:13;;;;;;;8.55;5.30;;;15.40;99.90;;;;;;4924632;29;20051;-92
2021/09/17 10:17:39;;;;;;;9.05;4.75;;;15.50;99.90;;;;;;4923530;29;20044;-92
2021/09/17 10:20:10;;;;;;;8.48;4.32;;;15.50;99.90;;;;;;4924637;29;20019;-92
2021/09/17 10:22:38;;;;;;;11.73;5.55;;;15.60;99.90;;;;;;4925925;29;20087;-92
2021/09/17 10:25:12;;;;;;;7.47;5.05;;;15.60;99.90;;;;;;4931414;29;20505;-92
2021/09/17 10:28:05;;;;;;;10.50;6.35;;;15.80;99.90;;;;;;4923471;29;20110;-92
2021/09/17 10:30:38;;;;;;;10.73;5.75;;;15.90;99.90;;;;;;4922018;29;20126;-93
2021/09/17 10:33:20;;;;;;;14.95;6.15;;;15.90;99.90;;;;;;4940415;29;20031;-92
2021/09/17 10:35:47;;;;;;;10.48;5.75;;;16.00;99.90;;;;;;4923290;29;20051;-92
2021/09/17 10:38:19;;;;;;;10.43;5.72;;;16.00;99.90;;;;;;4923328;29;20035;-93
2021/09/17 10:40:51;;;;;;;8.48;6.22;;;16.00;99.90;;;;;;4923154;29;20036;-92
2021/09/17 10:43:26;;;;;;;9.75;4.97;;;16.00;99.90;;;;;;4939097;29;20027;-91
2021/09/17 10:46:14;;;;;;;10.00;4.45;;;16.00;99.90;;;;;;4922092;29;20031;-92
2021/09/17 10:48:40;;;;;;;6.80;4.68;;;16.10;99.90;;;;;;4933620;29;20346;-92
2021/09/17 10:51:06;;;;;;;9.93;4.70;;;16.10;99.90;;;;;;4922945;29;20031;-92
2021/09/17 10:53:41;;;;;;;7.55;4.07;;;16.20;99.90;;;;;;4922423;29;20442;-92
2021/09/17 10:56:16;;;;;;;7.53;4.25;;;16.20;99.90;;;;;;4939676;29;20034;-91
2021/09/17 10:58:46;;;;;;;8.32;4.35;;;16.20;99.90;;;;;;4928573;29;20047;-92
2021/09/17 11:01:15;;;;;;;11.57;4.60;;;16.20;99.90;;;;;;4933787;29;20099;-92
2021/09/17 11:03:41;;;;;;;9.57;4.18;;;16.30;99.90;;;;;;4934433;29;20089;-90
2021/09/17 11:06:24;;;;;;;9.32;4.60;;;16.40;99.90;;;;;;4928882;29;20031;-87
2021/09/17 11:09:00;;;;;;;9.75;4.25;;;16.40;99.90;;;;;;4928839;29;20023;-92
2021/09/17 11:11:33;;;;;;;10.45;4.30;;;16.50;99.90;;;;;;4943541;29;20043;-90
2021/09/17 11:14:05;;;;;;;4.47;2.75;;;16.70;99.90;;;;;;4922985;29;20032;-92
2021/09/17 11:16:32;;;;;;;5.57;2.50;;;16.90;99.90;;;;;;4939333;29;20023;-91
2021/09/17 11:19:08;;;;;;;3.92;2.25;;;17.00;99.90;;;;;;4922561;29;20090;-91
2021/09/17 11:21:37;;;;;;;3.47;2.05;;;17.10;99.90;;;;;;4922641;29;20114;-92
2021/09/17 11:24:05;;;;;;;4.22;2.65;;;17.20;99.90;;;;;;4922426;29;20492;-91
2021/09/17 11:26:34;;;;;;;7.85;3.20;;;17.20;99.90;;;;;;4922158;29;20031;-91
2021/09/17 11:29:10;;;;;;;5.22;3.15;;;17.20;99.90;;;;;;4922632;29;20122;-91
2021/09/17 11:31:41;;;;;;;6.47;3.25;;;17.40;99.90;;;;;;4922692;29;20040;-92
2021/09/17 11:34:09;;;;;;;10.30;3.67;;;17.60;99.90;;;;;;4922336;29;20023;-92
2021/09/17 11:37:00;;;;;;;5.68;3.67;;;18.00;99.90;;;;;;4922301;29;20028;-90
2021/09/17 11:39:39;;;;;;;10.02;3.90;;;18.30;99.90;;;;;;4922196;29;20067;-90
2021/09/17 11:42:13;;;;;;;11.75;4.28;;;18.40;99.90;;;;;;4938986;29;20031;-89
2021/09/17 11:44:38;;;;;;;5.32;3.67;;;18.50;99.90;;;;;;4922470;29;20087;-93
2021/09/17 11:47:13;;;;;;;6.65;3.63;;;18.50;99.90;;;;;;4922288;29;20024;-90
2021/09/17 11:49:44;;;;;;;9.50;4.00;;;18.70;99.90;;;;;;4927880;29;20032;-94
2021/09/17 11:52:13;;;;;;;;;;;18.80;99.90;;;;;;4944288;29;20462;-92
2021/09/17 11:54:39;;;;;;;5.45;3.65;;;19.00;99.90;;;;;;4930240;29;19914;-91
2021/09/17 11:57:06;;;;;;;7.70;3.88;;;19.30;99.90;;;;;;4923076;29;20086;-91
2021/09/17 11:59:36;;;;;;;7.95;4.30;;;19.40;99.90;;;;;;4923341;29;20020;-93
2021/09/17 12:02:19;;;;;;;4.22;3.35;;;19.40;98.90;;;;;;4928618;29;20036;-91
2021/09/17 12:04:54;;;;;;;5.13;3.55;;;19.30;98.60;;;;;;4935029;29;20105;-90
2021/09/17 12:07:20;;;;;;;4.65;3.22;;;19.20;98.70;;;;;;4950661;29;20039;-92
2021/09/17 12:09:46;;;;;;;5.18;2.92;;;19.40;98.90;;;;;;4933426;29;20027;-89
2021/09/17 12:12:13;;;;;;;4.38;2.80;;;19.70;98.10;;;;;;4936866;29;20036;-89
2021/09/17 12:14:48;;;;;;;5.03;2.65;;;20.10;97.20;;;;;;4958067;29;20083;-91
2021/09/17 12:17:13;;;;;;;4.22;3.10;;;20.40;95.70;;;;;;4942225;28;20050;-91
2021/09/17 12:20:03;;;;;;;3.25;2.47;;;20.50;94.00;;;;;;4941868;29;20035;-89
2021/09/17 12:22:39;;;;;;;3.78;1.85;;;20.60;93.40;;;;;;4942247;28;20032;-92
2021/09/17 12:25:09;;;;;;;3.45;1.80;;;20.80;91.80;;;;;;4927624;29;20035;-92
2021/09/17 12:27:36;;;;;;;2.80;1.70;;;20.90;90.50;;;;;;4923328;29;20032;-91
2021/09/17 12:30:11;;;;;;;4.18;1.80;;;20.90;89.90;;;;;;4921520;29;20031;-91
2021/09/17 12:32:41;;;;;;;2.88;1.73;;;20.80;89.40;;;;;;4922116;29;20119;-90
2021/09/17 12:35:16;;;;;;;2.53;1.70;;;20.80;89.50;;;;;;4922112;29;20027;-90
2021/09/17 12:37:53;;;;;;;4.60;1.70;;;20.80;90.10;;;;;;4921914;29;20107;-87
2021/09/17 12:40:21;;;;;;;3.90;1.90;;;20.90;90.30;;;;;;4921101;29;20122;-92
2021/09/17 12:43:11;;;;;;;3.03;1.63;;;21.20;89.30;;;;;;4920448;29;20500;-90